sensor_id;sensor_type;location;lat;lon;timestamp;P1;durP1;ratioP1;P2;durP2;ratioP2
2656;SDS011;1338;48.176;11.792;2023-06-10T00:00:03;7.50;;;6.80;;
2656;SDS011;1338;48.176;11.792;2023-06-10T00:02:41;6.90;;;6.30;;
2656;SDS011;1338;48.176;11.792;2023-06-10T00:05:10;7.60;;;7.00;;
2656;SDS011;1338;48.176;11.792;2023-06-10T00:07:40;7.80;;;7.10;;
2656;SDS011;1338;48.176;11.792;2023-06-10T00:10:08;7.00;;;6.40;;
2656;SDS011;1338;48.176;11.792;2023-06-10T00:12:37;7.30;;;6.67;;
2656;SDS011;1338;48.176;11.792;2023-06-10T00:15:07;7.27;;;6.67;;
2656;SDS011;1338;48.176;11.792;2023-06-10T00:17:36;7.47;;;6.77;;
2656;SDS011;1338;48.176;11.792;2023-06-10T00:20:07;6.80;;;6.20;;
2656;SDS011;1338;48.176;11.792;2023-06-10T00:22:40;7.03;;;6.43;;
2656;SDS011;1338;48.176;11.792;2023-06-10T00:25:12;7.50;;;6.90;;
2656;SDS011;1338;48.176;11.792;2023-06-10T00:27:40;7.83;;;7.13;;
2656;SDS011;1338;48.176;11.792;2023-06-10T00:30:09;6.87;;;6.27;;
2656;SDS011;1338;48.176;11.792;2023-06-10T00:32:38;7.77;;;7.07;;
2656;SDS011;1338;48.176;11.792;2023-06-10T00:35:06;7.90;;;7.20;;
2656;SDS011;1338;48.176;11.792;2023-06-10T00:37:35;7.90;;;7.20;;
2656;SDS011;1338;48.176;11.792;2023-06-10T00:40:05;7.10;;;6.50;;
2656;SDS011;1338;48.176;11.792;2023-06-10T00:42:35;7.20;;;6.57;;
2656;SDS011;1338;48.176;11.792;2023-06-10T00:45:04;7.80;;;7.00;;
2656;SDS011;1338;48.176;11.792;2023-06-10T00:47:35;8.00;;;7.30;;
2656;SDS011;1338;48.176;11.792;2023-06-10T00:50:04;8.40;;;7.60;;
2656;SDS011;1338;48.176;11.792;2023-06-10T00:52:33;7.90;;;7.20;;
2656;SDS011;1338;48.176;11.792;2023-06-10T00:55:05;7.20;;;6.50;;
2656;SDS011;1338;48.176;11.792;2023-06-10T00:57:34;8.30;;;7.47;;
2656;SDS011;1338;48.176;11.792;2023-06-10T01:00:04;8.33;;;7.53;;
2656;SDS011;1338;48.176;11.792;2023-06-10T01:02:35;8.60;;;7.80;;
2656;SDS011;1338;48.176;11.792;2023-06-10T01:05:03;6.97;;;6.37;;
2656;SDS011;1338;48.176;11.792;2023-06-10T01:07:34;8.10;;;7.40;;
2656;SDS011;1338;48.176;11.792;2023-06-10T01:10:11;10.53;;;8.07;;
2656;SDS011;1338;48.176;11.792;2023-06-10T01:12:44;7.60;;;6.90;;
2656;SDS011;1338;48.176;11.792;2023-06-10T01:15:19;6.90;;;6.20;;
2656;SDS011;1338;48.176;11.792;2023-06-10T01:17:55;8.17;;;7.37;;
2656;SDS011;1338;48.176;11.792;2023-06-10T01:20:25;7.97;;;7.10;;
2656;SDS011;1338;48.176;11.792;2023-06-10T01:22:57;7.97;;;7.17;;
2656;SDS011;1338;48.176;11.792;2023-06-10T01:25:26;9.13;;;7.80;;
2656;SDS011;1338;48.176;11.792;2023-06-10T01:27:59;8.60;;;7.80;;
2656;SDS011;1338;48.176;11.792;2023-06-10T01:30:47;8.23;;;7.47;;
2656;SDS011;1338;48.176;11.792;2023-06-10T01:33:23;9.10;;;8.30;;
2656;SDS011;1338;48.176;11.792;2023-06-10T01:35:55;9.67;;;7.70;;
2656;SDS011;1338;48.176;11.792;2023-06-10T01:38:26;8.93;;;8.07;;
2656;SDS011;1338;48.176;11.792;2023-06-10T01:40:57;8.20;;;7.40;;
2656;SDS011;1338;48.176;11.792;2023-06-10T01:43:27;8.70;;;7.87;;
2656;SDS011;1338;48.176;11.792;2023-06-10T01:45:55;8.77;;;7.90;;
2656;SDS011;1338;48.176;11.792;2023-06-10T01:48:23;9.97;;;8.87;;
2656;SDS011;1338;48.176;11.792;2023-06-10T01:50:51;8.57;;;7.67;;
2656;SDS011;1338;48.176;11.792;2023-06-10T01:53:22;8.10;;;7.40;;
2656;SDS011;1338;48.176;11.792;2023-06-10T01:55:54;8.67;;;7.77;;
2656;SDS011;1338;48.176;11.792;2023-06-10T01:58:22;8.17;;;7.40;;
2656;SDS011;1338;48.176;11.792;2023-06-10T02:00:50;8.40;;;7.60;;
2656;SDS011;1338;48.176;11.792;2023-06-10T02:03:18;8.43;;;7.60;;
2656;SDS011;1338;48.176;11.792;2023-06-10T02:05:47;8.80;;;7.73;;
2656;SDS011;1338;48.176;11.792;2023-06-10T02:08:16;9.50;;;8.40;;
2656;SDS011;1338;48.176;11.792;2023-06-10T02:10:44;8.27;;;7.53;;
2656;SDS011;1338;48.176;11.792;2023-06-10T02:13:14;8.67;;;7.83;;
2656;SDS011;1338;48.176;11.792;2023-06-10T02:15:42;8.50;;;7.60;;
2656;SDS011;1338;48.176;11.792;2023-06-10T02:18:10;9.90;;;8.80;;
2656;SDS011;1338;48.176;11.792;2023-06-10T02:20:38;9.03;;;8.23;;
2656;SDS011;1338;48.176;11.792;2023-06-10T02:23:06;10.10;;;8.30;;
2656;SDS011;1338;48.176;11.792;2023-06-10T02:25:35;9.80;;;8.90;;
2656;SDS011;1338;48.176;11.792;2023-06-10T02:28:03;8.93;;;7.83;;
2656;SDS011;1338;48.176;11.792;2023-06-10T02:30:34;10.20;;;8.13;;
2656;SDS011;1338;48.176;11.792;2023-06-10T02:33:03;9.50;;;8.60;;
2656;SDS011;1338;48.176;11.792;2023-06-10T02:35:31;9.47;;;8.57;;
2656;SDS011;1338;48.176;11.792;2023-06-10T02:37:59;12.03;;;9.37;;
2656;SDS011;1338;48.176;11.792;2023-06-10T02:40:28;8.80;;;7.90;;
2656;SDS011;1338;48.176;11.792;2023-06-10T02:42:57;10.13;;;9.10;;
2656;SDS011;1338;48.176;11.792;2023-06-10T02:45:25;9.13;;;8.27;;
2656;SDS011;1338;48.176;11.792;2023-06-10T02:47:57;9.90;;;8.60;;
2656;SDS011;1338;48.176;11.792;2023-06-10T02:50:25;11.37;;;9.70;;
2656;SDS011;1338;48.176;11.792;2023-06-10T02:53:04;9.60;;;8.60;;
2656;SDS011;1338;48.176;11.792;2023-06-10T02:55:34;12.63;;;9.53;;
2656;SDS011;1338;48.176;11.792;2023-06-10T02:58:06;12.27;;;9.70;;
2656;SDS011;1338;48.176;11.792;2023-06-10T03:00:34;11.40;;;9.87;;
2656;SDS011;1338;48.176;11.792;2023-06-10T03:03:04;10.40;;;9.30;;
2656;SDS011;1338;48.176;11.792;2023-06-10T03:05:41;10.13;;;8.40;;
2656;SDS011;1338;48.176;11.792;2023-06-10T03:08:10;11.70;;;9.23;;
2656;SDS011;1338;48.176;11.792;2023-06-10T03:10:41;9.27;;;8.10;;
2656;SDS011;1338;48.176;11.792;2023-06-10T03:13:12;9.90;;;8.90;;
2656;SDS011;1338;48.176;11.792;2023-06-10T03:15:42;10.20;;;8.43;;
2656;SDS011;1338;48.176;11.792;2023-06-10T03:18:15;9.10;;;8.20;;
2656;SDS011;1338;48.176;11.792;2023-06-10T03:20:43;10.33;;;8.30;;
2656;SDS011;1338;48.176;11.792;2023-06-10T03:23:12;10.73;;;9.27;;
2656;SDS011;1338;48.176;11.792;2023-06-10T03:25:40;9.67;;;8.70;;
2656;SDS011;1338;48.176;11.792;2023-06-10T03:28:11;9.33;;;8.30;;
2656;SDS011;1338;48.176;11.792;2023-06-10T03:30:40;10.50;;;9.10;;
2656;SDS011;1338;48.176;11.792;2023-06-10T03:33:09;8.93;;;8.03;;
2656;SDS011;1338;48.176;11.792;2023-06-10T03:35:40;10.63;;;8.93;;
2656;SDS011;1338;48.176;11.792;2023-06-10T03:38:08;10.37;;;9.27;;
2656;SDS011;1338;48.176;11.792;2023-06-10T03:40:37;9.90;;;8.90;;
2656;SDS011;1338;48.176;11.792;2023-06-10T03:43:06;11.23;;;9.60;;
2656;SDS011;1338;48.176;11.792;2023-06-10T03:45:35;10.80;;;9.37;;
2656;SDS011;1338;48.176;11.792;2023-06-10T03:48:03;11.30;;;10.10;;
2656;SDS011;1338;48.176;11.792;2023-06-10T03:50:42;11.67;;;10.20;;
2656;SDS011;1338;48.176;11.792;2023-06-10T03:53:11;11.10;;;9.60;;
2656;SDS011;1338;48.176;11.792;2023-06-10T03:55:41;9.60;;;8.60;;
2656;SDS011;1338;48.176;11.792;2023-06-10T03:58:09;11.43;;;9.20;;
2656;SDS011;1338;48.176;11.792;2023-06-10T04:00:40;11.43;;;9.70;;
2656;SDS011;1338;48.176;11.792;2023-06-10T04:03:08;10.67;;;8.73;;
2656;SDS011;1338;48.176;11.792;2023-06-10T04:05:48;12.00;;;9.80;;
2656;SDS011;1338;48.176;11.792;2023-06-10T04:08:16;11.13;;;9.93;;
2656;SDS011;1338;48.176;11.792;2023-06-10T04:10:44;10.30;;;9.30;;
2656;SDS011;1338;48.176;11.792;2023-06-10T04:13:13;10.10;;;9.10;;
2656;SDS011;1338;48.176;11.792;2023-06-10T04:16:01;10.37;;;9.30;;
2656;SDS011;1338;48.176;11.792;2023-06-10T04:18:29;11.57;;;10.20;;
2656;SDS011;1338;48.176;11.792;2023-06-10T04:21:04;12.60;;;9.83;;
2656;SDS011;1338;48.176;11.792;2023-06-10T04:23:32;10.53;;;9.23;;
2656;SDS011;1338;48.176;11.792;2023-06-10T04:26:01;9.33;;;8.40;;
2656;SDS011;1338;48.176;11.792;2023-06-10T04:28:29;9.70;;;8.70;;
2656;SDS011;1338;48.176;11.792;2023-06-10T04:30:58;12.73;;;10.50;;
2656;SDS011;1338;48.176;11.792;2023-06-10T04:33:27;11.93;;;9.40;;
2656;SDS011;1338;48.176;11.792;2023-06-10T04:35:56;12.80;;;11.50;;
2656;SDS011;1338;48.176;11.792;2023-06-10T04:38:29;9.53;;;7.93;;
2656;SDS011;1338;48.176;11.792;2023-06-10T04:40:58;8.97;;;8.07;;
2656;SDS011;1338;48.176;11.792;2023-06-10T04:43:29;11.73;;;9.47;;
2656;SDS011;1338;48.176;11.792;2023-06-10T04:45:59;9.50;;;8.60;;
2656;SDS011;1338;48.176;11.792;2023-06-10T04:48:28;14.10;;;9.90;;
2656;SDS011;1338;48.176;11.792;2023-06-10T04:50:56;10.57;;;9.13;;
2656;SDS011;1338;48.176;11.792;2023-06-10T04:53:26;11.83;;;9.47;;
2656;SDS011;1338;48.176;11.792;2023-06-10T04:55:56;9.60;;;8.70;;
2656;SDS011;1338;48.176;11.792;2023-06-10T04:58:24;10.33;;;9.20;;
2656;SDS011;1338;48.176;11.792;2023-06-10T05:00:53;9.67;;;8.70;;
2656;SDS011;1338;48.176;11.792;2023-06-10T05:03:21;11.10;;;9.63;;
2656;SDS011;1338;48.176;11.792;2023-06-10T05:05:49;10.07;;;9.07;;
2656;SDS011;1338;48.176;11.792;2023-06-10T05:08:17;8.00;;;7.20;;
2656;SDS011;1338;48.176;11.792;2023-06-10T05:10:47;10.13;;;9.10;;
2656;SDS011;1338;48.176;11.792;2023-06-10T05:13:16;13.23;;;10.60;;
2656;SDS011;1338;48.176;11.792;2023-06-10T05:15:44;9.20;;;8.30;;
2656;SDS011;1338;48.176;11.792;2023-06-10T05:18:13;11.90;;;9.17;;
2656;SDS011;1338;48.176;11.792;2023-06-10T05:20:41;10.13;;;9.13;;
2656;SDS011;1338;48.176;11.792;2023-06-10T05:23:09;10.90;;;9.70;;
2656;SDS011;1338;48.176;11.792;2023-06-10T05:25:41;11.13;;;10.03;;
2656;SDS011;1338;48.176;11.792;2023-06-10T05:28:11;9.23;;;8.33;;
2656;SDS011;1338;48.176;11.792;2023-06-10T05:30:41;8.57;;;7.77;;
2656;SDS011;1338;48.176;11.792;2023-06-10T05:33:09;9.43;;;8.27;;
2656;SDS011;1338;48.176;11.792;2023-06-10T05:35:37;10.40;;;8.70;;
2656;SDS011;1338;48.176;11.792;2023-06-10T05:38:07;8.27;;;7.37;;
2656;SDS011;1338;48.176;11.792;2023-06-10T05:40:36;8.30;;;7.50;;
2656;SDS011;1338;48.176;11.792;2023-06-10T05:43:04;9.07;;;7.80;;
2656;SDS011;1338;48.176;11.792;2023-06-10T05:45:34;9.40;;;8.40;;
2656;SDS011;1338;48.176;11.792;2023-06-10T05:48:02;9.37;;;8.07;;
2656;SDS011;1338;48.176;11.792;2023-06-10T05:50:31;9.83;;;8.40;;
2656;SDS011;1338;48.176;11.792;2023-06-10T05:53:04;8.83;;;7.93;;
2656;SDS011;1338;48.176;11.792;2023-06-10T05:55:34;8.00;;;7.20;;
2656;SDS011;1338;48.176;11.792;2023-06-10T05:58:02;8.20;;;7.40;;
2656;SDS011;1338;48.176;11.792;2023-06-10T06:00:31;9.43;;;8.50;;
2656;SDS011;1338;48.176;11.792;2023-06-10T06:03:06;9.80;;;8.10;;
2656;SDS011;1338;48.176;11.792;2023-06-10T06:05:35;8.97;;;7.30;;
2656;SDS011;1338;48.176;11.792;2023-06-10T06:08:05;8.23;;;7.10;;
2656;SDS011;1338;48.176;11.792;2023-06-10T06:10:33;7.10;;;6.50;;
2656;SDS011;1338;48.176;11.792;2023-06-10T06:13:01;8.23;;;7.43;;
2656;SDS011;1338;48.176;11.792;2023-06-10T06:15:30;7.20;;;6.50;;
2656;SDS011;1338;48.176;11.792;2023-06-10T06:17:59;8.90;;;7.70;;
2656;SDS011;1338;48.176;11.792;2023-06-10T06:20:28;8.40;;;7.60;;
2656;SDS011;1338;48.176;11.792;2023-06-10T06:22:56;8.03;;;7.23;;
2656;SDS011;1338;48.176;11.792;2023-06-10T06:25:24;9.20;;;7.50;;
2656;SDS011;1338;48.176;11.792;2023-06-10T06:27:53;8.93;;;7.50;;
2656;SDS011;1338;48.176;11.792;2023-06-10T06:30:21;7.13;;;6.53;;
2656;SDS011;1338;48.176;11.792;2023-06-10T06:32:49;6.60;;;6.00;;
2656;SDS011;1338;48.176;11.792;2023-06-10T06:35:18;7.00;;;6.23;;
2656;SDS011;1338;48.176;11.792;2023-06-10T06:37:48;7.07;;;6.40;;
2656;SDS011;1338;48.176;11.792;2023-06-10T06:40:21;9.60;;;8.70;;
2656;SDS011;1338;48.176;11.792;2023-06-10T06:42:49;8.60;;;7.70;;
2656;SDS011;1338;48.176;11.792;2023-06-10T06:45:36;8.07;;;7.27;;
2656;SDS011;1338;48.176;11.792;2023-06-10T06:48:04;8.10;;;7.30;;
2656;SDS011;1338;48.176;11.792;2023-06-10T06:50:33;8.67;;;7.47;;
2656;SDS011;1338;48.176;11.792;2023-06-10T06:53:02;7.60;;;6.90;;
2656;SDS011;1338;48.176;11.792;2023-06-10T06:55:31;7.27;;;6.57;;
2656;SDS011;1338;48.176;11.792;2023-06-10T06:57:59;5.90;;;5.40;;
2656;SDS011;1338;48.176;11.792;2023-06-10T07:00:30;6.93;;;6.23;;
2656;SDS011;1338;48.176;11.792;2023-06-10T07:02:58;6.87;;;6.17;;
2656;SDS011;1338;48.176;11.792;2023-06-10T07:05:26;6.73;;;6.13;;
2656;SDS011;1338;48.176;11.792;2023-06-10T07:07:55;6.90;;;6.30;;
2656;SDS011;1338;48.176;11.792;2023-06-10T07:10:24;7.33;;;6.47;;
2656;SDS011;1338;48.176;11.792;2023-06-10T07:12:53;5.70;;;5.20;;
2656;SDS011;1338;48.176;11.792;2023-06-10T07:15:21;6.20;;;5.63;;
2656;SDS011;1338;48.176;11.792;2023-06-10T07:17:49;7.07;;;5.50;;
2656;SDS011;1338;48.176;11.792;2023-06-10T07:20:17;6.10;;;5.60;;
2656;SDS011;1338;48.176;11.792;2023-06-10T07:22:45;5.87;;;5.37;;
2656;SDS011;1338;48.176;11.792;2023-06-10T07:25:14;5.50;;;5.00;;
2656;SDS011;1338;48.176;11.792;2023-06-10T07:27:44;7.00;;;6.30;;
2656;SDS011;1338;48.176;11.792;2023-06-10T07:30:12;7.13;;;6.03;;
2656;SDS011;1338;48.176;11.792;2023-06-10T07:32:40;6.03;;;5.47;;
2656;SDS011;1338;48.176;11.792;2023-06-10T07:35:10;5.53;;;4.93;;
2656;SDS011;1338;48.176;11.792;2023-06-10T07:37:39;5.60;;;5.13;;
2656;SDS011;1338;48.176;11.792;2023-06-10T07:40:08;5.47;;;4.97;;
2656;SDS011;1338;48.176;11.792;2023-06-10T07:42:36;5.00;;;4.60;;
2656;SDS011;1338;48.176;11.792;2023-06-10T07:45:06;5.07;;;4.57;;
2656;SDS011;1338;48.176;11.792;2023-06-10T07:47:35;5.23;;;4.73;;
2656;SDS011;1338;48.176;11.792;2023-06-10T07:50:04;5.33;;;4.93;;
2656;SDS011;1338;48.176;11.792;2023-06-10T07:52:32;5.83;;;5.33;;
2656;SDS011;1338;48.176;11.792;2023-06-10T07:55:01;5.13;;;4.67;;
2656;SDS011;1338;48.176;11.792;2023-06-10T07:57:29;5.57;;;4.73;;
2656;SDS011;1338;48.176;11.792;2023-06-10T07:59:58;5.40;;;4.90;;
2656;SDS011;1338;48.176;11.792;2023-06-10T08:02:28;5.60;;;5.10;;
2656;SDS011;1338;48.176;11.792;2023-06-10T08:04:56;5.27;;;4.87;;
2656;SDS011;1338;48.176;11.792;2023-06-10T08:07:25;6.53;;;5.30;;
2656;SDS011;1338;48.176;11.792;2023-06-10T08:09:53;5.63;;;5.23;;
2656;SDS011;1338;48.176;11.792;2023-06-10T08:12:21;5.90;;;5.33;;
2656;SDS011;1338;48.176;11.792;2023-06-10T08:14:49;5.57;;;5.07;;
2656;SDS011;1338;48.176;11.792;2023-06-10T08:17:17;4.70;;;4.30;;
2656;SDS011;1338;48.176;11.792;2023-06-10T08:19:47;5.20;;;4.70;;
2656;SDS011;1338;48.176;11.792;2023-06-10T08:22:15;4.90;;;4.50;;
2656;SDS011;1338;48.176;11.792;2023-06-10T08:24:43;4.80;;;4.40;;
2656;SDS011;1338;48.176;11.792;2023-06-10T08:27:14;6.23;;;5.50;;
2656;SDS011;1338;48.176;11.792;2023-06-10T08:29:43;5.93;;;5.43;;
2656;SDS011;1338;48.176;11.792;2023-06-10T08:32:11;5.50;;;4.97;;
2656;SDS011;1338;48.176;11.792;2023-06-10T08:34:39;5.70;;;5.20;;
2656;SDS011;1338;48.176;11.792;2023-06-10T08:37:09;6.13;;;5.63;;
2656;SDS011;1338;48.176;11.792;2023-06-10T08:39:37;5.40;;;4.90;;
2656;SDS011;1338;48.176;11.792;2023-06-10T08:42:09;5.90;;;5.10;;
2656;SDS011;1338;48.176;11.792;2023-06-10T08:44:40;5.03;;;4.53;;
2656;SDS011;1338;48.176;11.792;2023-06-10T08:47:10;4.87;;;4.57;;
2656;SDS011;1338;48.176;11.792;2023-06-10T08:49:43;5.57;;;5.07;;
2656;SDS011;1338;48.176;11.792;2023-06-10T08:52:15;6.37;;;5.63;;
2656;SDS011;1338;48.176;11.792;2023-06-10T08:54:46;6.90;;;6.27;;
2656;SDS011;1338;48.176;11.792;2023-06-10T08:57:19;7.03;;;6.43;;
2656;SDS011;1338;48.176;11.792;2023-06-10T08:59:48;6.60;;;6.07;;
2656;SDS011;1338;48.176;11.792;2023-06-10T09:02:16;6.40;;;5.90;;
2656;SDS011;1338;48.176;11.792;2023-06-10T09:04:47;6.20;;;5.70;;
2656;SDS011;1338;48.176;11.792;2023-06-10T09:07:18;5.93;;;5.43;;
2656;SDS011;1338;48.176;11.792;2023-06-10T09:09:46;7.20;;;6.60;;
2656;SDS011;1338;48.176;11.792;2023-06-10T09:12:15;6.43;;;5.83;;
2656;SDS011;1338;48.176;11.792;2023-06-10T09:14:43;6.40;;;5.80;;
2656;SDS011;1338;48.176;11.792;2023-06-10T09:17:11;6.60;;;6.00;;
2656;SDS011;1338;48.176;11.792;2023-06-10T09:19:39;6.30;;;5.70;;
2656;SDS011;1338;48.176;11.792;2023-06-10T09:22:09;6.07;;;5.60;;
2656;SDS011;1338;48.176;11.792;2023-06-10T09:24:39;6.70;;;6.10;;
2656;SDS011;1338;48.176;11.792;2023-06-10T09:27:09;5.70;;;5.20;;
2656;SDS011;1338;48.176;11.792;2023-06-10T09:29:46;5.63;;;5.13;;
2656;SDS011;1338;48.176;11.792;2023-06-10T09:32:18;5.70;;;5.20;;
2656;SDS011;1338;48.176;11.792;2023-06-10T09:34:47;5.70;;;5.20;;
2656;SDS011;1338;48.176;11.792;2023-06-10T09:37:19;6.17;;;5.57;;
2656;SDS011;1338;48.176;11.792;2023-06-10T09:40:03;5.63;;;5.10;;
2656;SDS011;1338;48.176;11.792;2023-06-10T09:42:33;5.80;;;5.30;;
2656;SDS011;1338;48.176;11.792;2023-06-10T09:45:02;5.53;;;5.13;;
2656;SDS011;1338;48.176;11.792;2023-06-10T09:47:31;5.20;;;4.80;;
2656;SDS011;1338;48.176;11.792;2023-06-10T09:49:59;5.70;;;5.20;;
2656;SDS011;1338;48.176;11.792;2023-06-10T09:52:28;6.80;;;6.10;;
2656;SDS011;1338;48.176;11.792;2023-06-10T09:54:59;6.10;;;5.60;;
2656;SDS011;1338;48.176;11.792;2023-06-10T09:57:31;5.20;;;4.80;;
2656;SDS011;1338;48.176;11.792;2023-06-10T10:00:04;5.40;;;4.90;;
2656;SDS011;1338;48.176;11.792;2023-06-10T10:02:43;5.17;;;4.70;;
2656;SDS011;1338;48.176;11.792;2023-06-10T10:05:15;5.37;;;4.87;;
2656;SDS011;1338;48.176;11.792;2023-06-10T10:07:45;5.07;;;4.67;;
2656;SDS011;1338;48.176;11.792;2023-06-10T10:10:14;5.13;;;4.63;;
2656;SDS011;1338;48.176;11.792;2023-06-10T10:12:47;4.63;;;4.27;;
2656;SDS011;1338;48.176;11.792;2023-06-10T10:15:18;4.90;;;4.50;;
2656;SDS011;1338;48.176;11.792;2023-06-10T10:17:49;6.00;;;5.40;;
2656;SDS011;1338;48.176;11.792;2023-06-10T10:20:24;5.40;;;4.93;;
2656;SDS011;1338;48.176;11.792;2023-06-10T10:22:55;4.97;;;4.57;;
2656;SDS011;1338;48.176;11.792;2023-06-10T10:25:27;5.50;;;5.00;;
2656;SDS011;1338;48.176;11.792;2023-06-10T10:27:59;4.87;;;4.40;;
2656;SDS011;1338;48.176;11.792;2023-06-10T10:30:34;5.00;;;4.60;;
2656;SDS011;1338;48.176;11.792;2023-06-10T10:33:09;4.37;;;3.97;;
2656;SDS011;1338;48.176;11.792;2023-06-10T10:35:40;4.73;;;4.33;;
2656;SDS011;1338;48.176;11.792;2023-06-10T10:38:09;4.97;;;4.60;;
2656;SDS011;1338;48.176;11.792;2023-06-10T10:40:38;5.30;;;4.80;;
2656;SDS011;1338;48.176;11.792;2023-06-10T10:43:08;4.10;;;3.80;;
2656;SDS011;1338;48.176;11.792;2023-06-10T10:45:37;4.60;;;4.20;;
2656;SDS011;1338;48.176;11.792;2023-06-10T10:48:06;4.40;;;4.10;;
2656;SDS011;1338;48.176;11.792;2023-06-10T10:50:38;4.80;;;4.40;;
2656;SDS011;1338;48.176;11.792;2023-06-10T10:53:07;4.53;;;4.17;;
2656;SDS011;1338;48.176;11.792;2023-06-10T10:55:35;4.40;;;4.10;;
2656;SDS011;1338;48.176;11.792;2023-06-10T10:58:04;4.57;;;4.17;;
2656;SDS011;1338;48.176;11.792;2023-06-10T11:00:35;4.40;;;4.10;;
2656;SDS011;1338;48.176;11.792;2023-06-10T11:03:05;4.43;;;4.03;;
2656;SDS011;1338;48.176;11.792;2023-06-10T11:05:37;4.10;;;3.70;;
2656;SDS011;1338;48.176;11.792;2023-06-10T11:08:07;4.17;;;3.77;;
2656;SDS011;1338;48.176;11.792;2023-06-10T11:10:36;3.83;;;3.53;;
2656;SDS011;1338;48.176;11.792;2023-06-10T11:13:06;4.67;;;4.27;;
2656;SDS011;1338;48.176;11.792;2023-06-10T11:15:39;4.30;;;4.00;;
2656;SDS011;1338;48.176;11.792;2023-06-10T11:18:18;4.53;;;4.13;;
2656;SDS011;1338;48.176;11.792;2023-06-10T11:20:52;3.47;;;3.27;;
2656;SDS011;1338;48.176;11.792;2023-06-10T11:23:40;3.37;;;3.17;;
2656;SDS011;1338;48.176;11.792;2023-06-10T11:29:06;6.03;;;3.47;;
2656;SDS011;1338;48.176;11.792;2023-06-10T11:31:40;3.77;;;3.47;;
2656;SDS011;1338;48.176;11.792;2023-06-10T11:34:10;3.80;;;3.50;;
2656;SDS011;1338;48.176;11.792;2023-06-10T11:36:40;3.70;;;3.40;;
2656;SDS011;1338;48.176;11.792;2023-06-10T11:39:11;3.20;;;3.00;;
2656;SDS011;1338;48.176;11.792;2023-06-10T11:41:40;3.50;;;3.27;;
2656;SDS011;1338;48.176;11.792;2023-06-10T11:44:09;3.80;;;3.57;;
2656;SDS011;1338;48.176;11.792;2023-06-10T11:46:41;3.83;;;3.53;;
2656;SDS011;1338;48.176;11.792;2023-06-10T11:49:10;3.90;;;3.60;;
2656;SDS011;1338;48.176;11.792;2023-06-10T11:51:41;4.40;;;4.10;;
2656;SDS011;1338;48.176;11.792;2023-06-10T11:54:15;3.50;;;3.30;;
2656;SDS011;1338;48.176;11.792;2023-06-10T11:56:45;3.87;;;3.57;;
2656;SDS011;1338;48.176;11.792;2023-06-10T11:59:13;4.03;;;3.80;;
2656;SDS011;1338;48.176;11.792;2023-06-10T12:01:44;4.03;;;3.73;;
2656;SDS011;1338;48.176;11.792;2023-06-10T12:04:14;4.43;;;4.13;;
2656;SDS011;1338;48.176;11.792;2023-06-10T12:06:45;3.30;;;3.10;;
2656;SDS011;1338;48.176;11.792;2023-06-10T12:09:18;3.90;;;3.50;;
2656;SDS011;1338;48.176;11.792;2023-06-10T12:11:55;3.60;;;3.40;;
2656;SDS011;1338;48.176;11.792;2023-06-10T12:17:24;4.07;;;3.77;;
2656;SDS011;1338;48.176;11.792;2023-06-10T12:20:05;4.67;;;4.37;;
2656;SDS011;1338;48.176;11.792;2023-06-10T12:22:38;4.50;;;4.10;;
2656;SDS011;1338;48.176;11.792;2023-06-10T12:25:08;4.80;;;4.40;;
2656;SDS011;1338;48.176;11.792;2023-06-10T12:27:37;5.27;;;4.87;;
2656;SDS011;1338;48.176;11.792;2023-06-10T12:30:07;5.10;;;4.70;;
2656;SDS011;1338;48.176;11.792;2023-06-10T12:32:38;4.70;;;4.40;;
2656;SDS011;1338;48.176;11.792;2023-06-10T12:35:09;4.90;;;4.50;;
2656;SDS011;1338;48.176;11.792;2023-06-10T12:37:39;5.20;;;4.70;;
2656;SDS011;1338;48.176;11.792;2023-06-10T12:40:09;5.10;;;4.70;;
2656;SDS011;1338;48.176;11.792;2023-06-10T12:42:38;5.20;;;4.80;;
2656;SDS011;1338;48.176;11.792;2023-06-10T12:45:08;5.17;;;4.77;;
2656;SDS011;1338;48.176;11.792;2023-06-10T12:47:40;5.83;;;5.33;;
2656;SDS011;1338;48.176;11.792;2023-06-10T12:50:09;6.33;;;5.80;;
2656;SDS011;1338;48.176;11.792;2023-06-10T12:52:39;5.63;;;5.13;;
2656;SDS011;1338;48.176;11.792;2023-06-10T12:55:08;5.87;;;5.37;;
2656;SDS011;1338;48.176;11.792;2023-06-10T12:57:37;5.50;;;5.10;;
2656;SDS011;1338;48.176;11.792;2023-06-10T13:00:16;5.07;;;4.63;;
2656;SDS011;1338;48.176;11.792;2023-06-10T13:02:48;4.73;;;4.33;;
2656;SDS011;1338;48.176;11.792;2023-06-10T13:05:17;5.70;;;5.20;;
2656;SDS011;1338;48.176;11.792;2023-06-10T13:07:46;5.07;;;4.67;;
2656;SDS011;1338;48.176;11.792;2023-06-10T13:10:15;4.70;;;4.40;;
2656;SDS011;1338;48.176;11.792;2023-06-10T13:12:44;5.40;;;5.00;;
2656;SDS011;1338;48.176;11.792;2023-06-10T13:15:14;5.30;;;4.90;;
2656;SDS011;1338;48.176;11.792;2023-06-10T13:17:43;4.90;;;4.50;;
2656;SDS011;1338;48.176;11.792;2023-06-10T13:20:17;4.87;;;4.47;;
2656;SDS011;1338;48.176;11.792;2023-06-10T13:22:46;5.40;;;4.90;;
2656;SDS011;1338;48.176;11.792;2023-06-10T13:25:15;4.47;;;4.17;;
2656;SDS011;1338;48.176;11.792;2023-06-10T13:27:44;5.27;;;4.87;;
2656;SDS011;1338;48.176;11.792;2023-06-10T13:30:13;4.93;;;4.53;;
2656;SDS011;1338;48.176;11.792;2023-06-10T13:32:41;5.37;;;4.90;;
2656;SDS011;1338;48.176;11.792;2023-06-10T13:35:10;5.10;;;4.70;;
2656;SDS011;1338;48.176;11.792;2023-06-10T13:37:40;4.57;;;4.17;;
2656;SDS011;1338;48.176;11.792;2023-06-10T13:40:08;5.13;;;4.73;;
2656;SDS011;1338;48.176;11.792;2023-06-10T13:42:38;4.87;;;4.47;;
2656;SDS011;1338;48.176;11.792;2023-06-10T13:45:06;5.23;;;4.83;;
2656;SDS011;1338;48.176;11.792;2023-06-10T13:47:36;4.97;;;4.57;;
2656;SDS011;1338;48.176;11.792;2023-06-10T13:50:05;4.77;;;4.47;;
2656;SDS011;1338;48.176;11.792;2023-06-10T13:52:34;5.30;;;4.90;;
2656;SDS011;1338;48.176;11.792;2023-06-10T13:55:04;4.43;;;4.03;;
2656;SDS011;1338;48.176;11.792;2023-06-10T13:57:34;4.60;;;4.20;;
2656;SDS011;1338;48.176;11.792;2023-06-10T14:00:02;4.50;;;4.10;;
2656;SDS011;1338;48.176;11.792;2023-06-10T14:02:32;4.20;;;3.90;;
2656;SDS011;1338;48.176;11.792;2023-06-10T14:05:00;3.70;;;3.47;;
2656;SDS011;1338;48.176;11.792;2023-06-10T14:07:29;4.07;;;3.77;;
2656;SDS011;1338;48.176;11.792;2023-06-10T14:09:57;4.33;;;3.93;;
2656;SDS011;1338;48.176;11.792;2023-06-10T14:12:26;4.23;;;3.93;;
2656;SDS011;1338;48.176;11.792;2023-06-10T14:14:54;4.10;;;3.80;;
2656;SDS011;1338;48.176;11.792;2023-06-10T14:17:23;4.67;;;4.27;;
2656;SDS011;1338;48.176;11.792;2023-06-10T14:19:51;4.70;;;4.30;;
2656;SDS011;1338;48.176;11.792;2023-06-10T14:22:19;4.67;;;4.37;;
2656;SDS011;1338;48.176;11.792;2023-06-10T14:24:47;5.20;;;4.80;;
2656;SDS011;1338;48.176;11.792;2023-06-10T14:27:15;4.60;;;4.30;;
2656;SDS011;1338;48.176;11.792;2023-06-10T14:29:45;4.80;;;4.40;;
2656;SDS011;1338;48.176;11.792;2023-06-10T14:32:14;5.20;;;4.80;;
2656;SDS011;1338;48.176;11.792;2023-06-10T14:34:42;4.80;;;4.40;;
2656;SDS011;1338;48.176;11.792;2023-06-10T14:37:11;5.17;;;4.77;;
2656;SDS011;1338;48.176;11.792;2023-06-10T14:39:39;5.40;;;5.00;;
2656;SDS011;1338;48.176;11.792;2023-06-10T14:42:07;5.13;;;4.73;;
2656;SDS011;1338;48.176;11.792;2023-06-10T14:44:36;4.90;;;4.50;;
2656;SDS011;1338;48.176;11.792;2023-06-10T14:47:06;4.50;;;4.10;;
2656;SDS011;1338;48.176;11.792;2023-06-10T14:49:34;4.83;;;4.43;;
2656;SDS011;1338;48.176;11.792;2023-06-10T14:52:03;5.00;;;4.60;;
2656;SDS011;1338;48.176;11.792;2023-06-10T14:54:31;5.07;;;4.67;;
2656;SDS011;1338;48.176;11.792;2023-06-10T14:56:59;4.83;;;4.53;;
2656;SDS011;1338;48.176;11.792;2023-06-10T14:59:28;4.87;;;4.57;;
2656;SDS011;1338;48.176;11.792;2023-06-10T15:01:56;4.73;;;4.40;;
2656;SDS011;1338;48.176;11.792;2023-06-10T15:04:28;4.67;;;4.27;;
2656;SDS011;1338;48.176;11.792;2023-06-10T15:06:56;4.67;;;4.27;;
2656;SDS011;1338;48.176;11.792;2023-06-10T15:09:24;5.40;;;5.00;;
2656;SDS011;1338;48.176;11.792;2023-06-10T15:11:52;5.43;;;4.93;;
2656;SDS011;1338;48.176;11.792;2023-06-10T15:14:20;5.20;;;4.80;;
2656;SDS011;1338;48.176;11.792;2023-06-10T15:16:48;4.97;;;4.57;;
2656;SDS011;1338;48.176;11.792;2023-06-10T15:19:16;4.67;;;4.37;;
2656;SDS011;1338;48.176;11.792;2023-06-10T15:21:46;4.77;;;4.47;;